Time;durP1;ratioP1;P1;durP2;ratioP2;P2;SDS_P1;SDS_P2;PMS_P1;PMS_P2;Temp;Humidity;BMP_temperature;BMP_pressure;BME280_temperature;BME280_humidity;BME280_pressure;Samples;Min_cycle;Max_cycle;Signal;HPM_P1;HPM_P2
2022/10/17 00:02:01;;;;;;;;;;;;;;;;;;5032395;28;20363;-63
2022/10/17 00:04:27;;;;;;;;;;;;;;;;;;5035556;28;21524;-63
2022/10/17 00:06:53;;;;;;;;;;;;;;;;;;5032377;28;19971;-63
2022/10/17 00:09:19;;;;;;;;;;;;;;;;;;5036920;28;19964;-63
2022/10/17 00:11:45;;;;;;;;;;;;;;;;;;5018140;28;19929;-64
2022/10/17 00:14:12;;;;;;;;;;;;;;;;;;5035948;28;19929;-64
2022/10/17 00:16:38;;;;;;;;;;;;;;;;;;5039366;28;20474;-62
2022/10/17 00:19:04;;;;;;;;;;;;;;;;;;5036261;28;19975;-64
2022/10/17 00:21:30;;;;;;;;;;;;;;;;;;5036398;28;19979;-63
2022/10/17 00:23:56;;;;;;;;;;;;;;;;;;5035296;28;20018;-64
2022/10/17 00:26:23;;;;;;;;;;;;;;;;;;5049942;28;20017;-63
2022/10/17 00:28:49;;;;;;;;;;;;;;;;;;5035358;28;19933;-63
2022/10/17 00:31:15;;;;;;;;;;;;;;;;;;5038741;28;19928;-65
2022/10/17 00:33:42;;;;;;;;;;;;;;;;;;5028234;28;20218;-64
2022/10/17 00:36:09;;;;;;;;;;;;;;;;;;5022539;28;19998;-64
2022/10/17 00:38:35;;;;;;;;;;;;;;;;;;5038652;28;20087;-63
2022/10/17 00:41:01;;;;;;;;;;;;;;;;;;5032091;28;19929;-63
2022/10/17 00:43:28;;;;;;;;;;;;;;;;;;5031166;28;19929;-63
2022/10/17 00:45:54;;;;;;;;;;;;;;;;;;5036484;28;20014;-63
2022/10/17 00:48:20;;;;;;;;;;;;;;;;;;5041713;28;20666;-64
2022/10/17 00:50:48;;;;;;;;;;;;;;;;;;5037108;28;19976;-63
2022/10/17 00:53:14;;;;;;;;;;;;;;;;;;5034725;28;19951;-64
2022/10/17 00:55:40;;;;;;;;;;;;;;;;;;5038487;28;20022;-64
2022/10/17 00:58:06;;;;;;;;;;;;;;;;;;5035656;28;19998;-64
2022/10/17 01:00:32;;;;;;;;;;;;;;;;;;5030681;28;20693;-64
2022/10/17 01:02:59;;;;;;;;;;;;;;;;;;5033942;28;19975;-64
2022/10/17 01:05:25;;;;;;;;;;;;;;;;;;5023429;28;19987;-64
2022/10/17 01:07:51;;;;;;;;;;;;;;;;;;5037745;28;19972;-63
2022/10/17 01:10:17;;;;;;;;;;;;;;;;;;5047458;28;19929;-64
2022/10/17 01:12:43;;;;;;;;;;;;;;;;;;5059694;28;19987;-64
2022/10/17 01:15:09;;;;;;;;;;;;;;;;;;5052877;28;19928;-63
2022/10/17 01:17:36;;;;;;;;;;;;;;;;;;5062586;28;19936;-63
2022/10/17 01:20:02;;;;;;;;;;;;;;;;;;5051891;28;19929;-64
2022/10/17 01:22:28;;;;;;;;;;;;;;;;;;5065302;28;19929;-64
2022/10/17 01:24:54;;;;;;;;;;;;;;;;;;5049512;28;19934;-64
2022/10/17 01:27:21;;;;;;;;;;;;;;;;;;5053067;28;20270;-64
2022/10/17 01:29:47;;;;;;;;;;;;;;;;;;5051915;28;19933;-64
2022/10/17 01:32:13;;;;;;;;;;;;;;;;;;5052548;28;20438;-64
2022/10/17 01:34:39;;;;;;;;;;;;;;;;;;5065838;28;20354;-64
2022/10/17 01:37:05;;;;;;;;;;;;;;;;;;5041977;28;20018;-63
2022/10/17 01:39:31;;;;;;;;;;;;;;;;;;5056871;28;19951;-63
2022/10/17 01:42:01;;;;;;;;;;;;;;;;;;5061303;28;19928;-64
2022/10/17 01:44:28;;;;;;;;;;;;;;;;;;5055122;28;19982;-63
2022/10/17 01:46:54;;;;;;;;;;;;;;;;;;5066492;28;20335;-64
2022/10/17 01:49:25;;;;;;;;;;;;;;;;;;5058254;28;20589;-64
2022/10/17 01:51:51;;;;;;;;;;;;;;;;;;5051502;28;19949;-65
2022/10/17 01:54:17;;;;;;;;;;;;;;;;;;5056632;28;20330;-64
2022/10/17 01:56:43;;;;;;;;;;;;;;;;;;5064989;28;19997;-64
2022/10/17 01:59:10;;;;;;;;;;;;;;;;;;5058390;28;21225;-65
2022/10/17 02:01:36;;;;;;;;;;;;;;;;;;5060293;28;19978;-63
2022/10/17 02:04:02;;;;;;;;;;;;;;;;;;5058974;28;19936;-63
2022/10/17 02:06:28;;;;;;;;;;;;;;;;;;5041400;28;19936;-65
2022/10/17 02:08:54;;;;;;;;;;;;;;;;;;5052313;28;20443;-63
2022/10/17 02:11:21;;;;;;;;;;;;;;;;;;5056526;28;19928;-64
2022/10/17 02:13:47;;;;;;;;;;;;;;;;;;5063925;28;19928;-64
2022/10/17 02:16:13;;;;;;;;;;;;;;;;;;5064155;28;19986;-64
2022/10/17 02:18:39;;;;;;;;;;;;;;;;;;5056585;28;19928;-64
2022/10/17 02:21:05;;;;;;;;;;;;;;;;;;5060318;28;19968;-63
2022/10/17 02:23:32;;;;;;;;;;;;;;;;;;5044762;28;19928;-66
2022/10/17 02:25:58;;;;;;;;;;;;;;;;;;5048601;28;19975;-64
2022/10/17 02:28:24;;;;;;;;;;;;;;;;;;5057842;28;19928;-65
2022/10/17 02:30:51;;;;;;;;;;;;;;;;;;5061021;28;19939;-64
2022/10/17 02:33:17;;;;;;;;;;;;;;;;;;5058263;28;19928;-64
2022/10/17 02:35:43;;;;;;;;;;;;;;;;;;5057827;28;19928;-65
2022/10/17 02:38:09;;;;;;;;;;;;;;;;;;5065645;28;20369;-65
2022/10/17 02:40:35;;;;;;;;;;;;;;;;;;5053923;28;20426;-64
2022/10/17 02:43:02;;;;;;;;;;;;;;;;;;5056864;28;19929;-63
2022/10/17 02:45:28;;;;;;;;;;;;;;;;;;5053160;28;19929;-63
2022/10/17 02:47:54;;;;;;;;;;;;;;;;;;5053499;28;19928;-64
2022/10/17 02:50:20;;;;;;;;;;;;;;;;;;5066302;28;20446;-64
2022/10/17 02:52:46;;;;;;;;;;;;;;;;;;5052007;28;19928;-64
2022/10/17 02:55:12;;;;;;;;;;;;;;;;;;5064905;28;19929;-64
2022/10/17 02:57:39;;;;;;;;;;;;;;;;;;5060492;28;20347;-64
2022/10/17 03:00:05;;;;;;;;;;;;;;;;;;5060078;28;19934;-64
2022/10/17 03:02:31;;;;;;;;;;;;;;;;;;5047558;28;20037;-64
2022/10/17 03:04:57;;;;;;;;;;;;;;;;;;5061614;28;20012;-64
2022/10/17 03:07:23;;;;;;;;;;;;;;;;;;5060629;28;20515;-64
2022/10/17 03:09:50;;;;;;;;;;;;;;;;;;5051373;28;19936;-65
2022/10/17 03:12:16;;;;;;;;;;;;;;;;;;5055088;28;20017;-65
2022/10/17 03:14:42;;;;;;;;;;;;;;;;;;5045940;28;19928;-65
2022/10/17 03:17:08;;;;;;;;;;;;;;;;;;5064496;28;19929;-64
2022/10/17 03:19:34;;;;;;;;;;;;;;;;;;5058338;28;19982;-64
2022/10/17 03:22:01;;;;;;;;;;;;;;;;;;5061342;28;19981;-64
2022/10/17 03:24:27;;;;;;;;;;;;;;;;;;5053734;28;19929;-64
2022/10/17 03:26:53;;;;;;;;;;;;;;;;;;5046172;28;19978;-65
2022/10/17 03:29:19;;;;;;;;;;;;;;;;;;5052426;28;20678;-63
2022/10/17 03:31:45;;;;;;;;;;;;;;;;;;5058413;28;19928;-64
2022/10/17 03:34:12;;;;;;;;;;;;;;;;;;5063959;28;20426;-64
2022/10/17 03:36:38;;;;;;;;;;;;;;;;;;5050988;28;19932;-64
2022/10/17 03:39:04;;;;;;;;;;;;;;;;;;5064917;28;19982;-63
2022/10/17 03:41:30;;;;;;;;;;;;;;;;;;5048465;28;19955;-64
2022/10/17 03:43:56;;;;;;;;;;;;;;;;;;5057845;28;19970;-63
2022/10/17 03:46:22;;;;;;;;;;;;;;;;;;5065288;28;19929;-64
2022/10/17 03:48:49;;;;;;;;;;;;;;;;;;5053741;28;19933;-64
2022/10/17 03:51:15;;;;;;;;;;;;;;;;;;5049078;28;19929;-65
2022/10/17 03:53:41;;;;;;;;;;;;;;;;;;5054101;28;19929;-64
2022/10/17 03:56:07;;;;;;;;;;;;;;;;;;5049247;28;20461;-64
2022/10/17 03:58:33;;;;;;;;;;;;;;;;;;5064051;28;19929;-64
2022/10/17 04:01:00;;;;;;;;;;;;;;;;;;5052356;28;19974;-64
2022/10/17 04:03:26;;;;;;;;;;;;;;;;;;5051544;28;20026;-63
2022/10/17 04:05:52;;;;;;;;;;;;;;;;;;5047149;28;19978;-64
2022/10/17 04:08:18;;;;;;;;;;;;;;;;;;5059452;28;19928;-64
2022/10/17 04:10:44;;;;;;;;;;;;;;;;;;5065298;28;19971;-64
2022/10/17 04:13:10;;;;;;;;;;;;;;;;;;5055528;28;19928;-62
2022/10/17 04:15:37;;;;;;;;;;;;;;;;;;5061725;28;20336;-64
2022/10/17 04:18:03;;;;;;;;;;;;;;;;;;5057501;28;19994;-63
2022/10/17 04:20:30;;;;;;;;;;;;;;;;;;5064464;28;20373;-65
2022/10/17 04:22:56;;;;;;;;;;;;;;;;;;5049047;28;20455;-64
2022/10/17 04:25:22;;;;;;;;;;;;;;;;;;5053934;28;19994;-64
2022/10/17 04:27:48;;;;;;;;;;;;;;;;;;5061784;28;19932;-64
2022/10/17 04:30:14;;;;;;;;;;;;;;;;;;5049774;28;19964;-64
2022/10/17 04:32:41;;;;;;;;;;;;;;;;;;5052738;28;19939;-64
2022/10/17 04:35:07;;;;;;;;;;;;;;;;;;5049090;28;19929;-65
2022/10/17 04:37:33;;;;;;;;;;;;;;;;;;5054787;28;19978;-64
2022/10/17 04:40:00;;;;;;;;;;;;;;;;;;5055640;28;19982;-64
2022/10/17 04:42:26;;;;;;;;;;;;;;;;;;5055056;28;20369;-65
2022/10/17 04:44:52;;;;;;;;;;;;;;;;;;5057233;28;19950;-64
2022/10/17 04:47:19;;;;;;;;;;;;;;;;;;5057514;28;19929;-65
2022/10/17 04:49:45;;;;;;;;;;;;;;;;;;5052303;28;19928;-64
2022/10/17 04:52:11;;;;;;;;;;;;;;;;;;5051424;28;19936;-65
2022/10/17 04:54:37;;;;;;;;;;;;;;;;;;5065065;28;19940;-65
2022/10/17 04:57:03;;;;;;;;;;;;;;;;;;5056285;28;19974;-64
2022/10/17 04:59:30;;;;;;;;;;;;;;;;;;5059137;28;19929;-64
2022/10/17 05:01:56;;;;;;;;;;;;;;;;;;5057745;28;19983;-65
2022/10/17 05:04:22;;;;;;;;;;;;;;;;;;5050333;28;20392;-64
2022/10/17 05:06:50;;;;;;;;;;;;;;;;;;5061938;28;19928;-64
2022/10/17 05:09:16;;;;;;;;;;;;;;;;;;5066765;28;19963;-63
2022/10/17 05:11:42;;;;;;;;;;;;;;;;;;5061511;28;19932;-64
2022/10/17 05:14:08;;;;;;;;;;;;;;;;;;5060253;28;19928;-63
2022/10/17 05:16:34;;;;;;;;;;;;;;;;;;5071034;28;19929;-64
2022/10/17 05:19:00;;;;;;;;;;;;;;;;;;5059705;28;19936;-63
2022/10/17 05:21:27;;;;;;;;;;;;;;;;;;5059130;28;19936;-63
2022/10/17 05:23:53;;;;;;;;;;;;;;;;;;5064552;28;19924;-65
2022/10/17 05:26:19;;;;;;;;;;;;;;;;;;5064315;28;19940;-65
2022/10/17 05:28:45;;;;;;;;;;;;;;;;;;5069771;28;19928;-64
2022/10/17 05:31:11;;;;;;;;;;;;;;;;;;5063719;28;20401;-64
2022/10/17 05:33:38;;;;;;;;;;;;;;;;;;5050781;28;19928;-63
2022/10/17 05:36:04;;;;;;;;;;;;;;;;;;5057448;28;19936;-63
2022/10/17 05:38:30;;;;;;;;;;;;;;;;;;5062920;28;19981;-63
2022/10/17 05:40:56;;;;;;;;;;;;;;;;;;5074957;28;20042;-63
2022/10/17 05:43:23;;;;;;;;;;;;;;;;;;5064643;28;19932;-64
2022/10/17 05:45:49;;;;;;;;;;;;;;;;;;5051871;28;20011;-64
2022/10/17 05:48:15;;;;;;;;;;;;;;;;;;5065995;28;19932;-63
2022/10/17 05:50:41;;;;;;;;;;;;;;;;;;5056332;28;19952;-63
2022/10/17 05:53:08;;;;;;;;;;;;;;;;;;5068928;28;19982;-64
2022/10/17 05:55:34;;;;;;;;;;;;;;;;;;5055717;28;19928;-64
2022/10/17 05:58:00;;;;;;;;;;;;;;;;;;5066826;28;20536;-63
2022/10/17 06:00:26;;;;;;;;;;;;;;;;;;5051098;28;20396;-63
2022/10/17 06:02:52;;;;;;;;;;;;;;;;;;5064758;28;19932;-63
2022/10/17 06:05:19;;;;;;;;;;;;;;;;;;5062796;28;19978;-65
2022/10/17 06:07:45;;;;;;;;;;;;;;;;;;5058125;28;19929;-64
2022/10/17 06:10:12;;;;;;;;;;;;;;;;;;5069922;28;20472;-64
2022/10/17 06:12:38;;;;;;;;;;;;;;;;;;5056896;28;20416;-64
2022/10/17 06:15:04;;;;;;;;;;;;;;;;;;5054837;28;19985;-63
2022/10/17 06:17:30;;;;;;;;;;;;;;;;;;5060343;28;20415;-63
2022/10/17 06:19:56;;;;;;;;;;;;;;;;;;5069750;28;19931;-64
2022/10/17 06:22:23;;;;;;;;;;;;;;;;;;5065751;28;19978;-64
2022/10/17 06:24:49;;;;;;;;;;;;;;;;;;5063796;28;20015;-64
2022/10/17 06:27:15;;;;;;;;;;;;;;;;;;5052857;28;19933;-64
2022/10/17 06:29:41;;;;;;;;;;;;;;;;;;5046638;28;20230;-64
2022/10/17 06:32:08;;;;;;;;;;;;;;;;;;5050334;28;19929;-65
2022/10/17 06:34:37;;;;;;;;;;;;;;;;;;5060293;28;19978;-65
2022/10/17 06:37:03;;;;;;;;;;;;;;;;;;5059791;28;19944;-65
2022/10/17 06:39:32;;;;;;;;;;;;;;;;;;5063110;28;19940;-66
2022/10/17 06:41:58;;;;;;;;;;;;;;;;;;5056063;28;19929;-63
2022/10/17 06:44:29;;;;;;;;;;;;;;;;;;5064828;28;19997;-64
2022/10/17 06:46:55;;;;;;;;;;;;;;;;;;5057507;28;20069;-64
2022/10/17 06:49:21;;;;;;;;;;;;;;;;;;5051027;28;19924;-64
2022/10/17 06:51:47;;;;;;;;;;;;;;;;;;5061323;28;19932;-64
2022/10/17 06:54:14;;;;;;;;;;;;;;;;;;5061629;28;19937;-64
2022/10/17 06:56:40;;;;;;;;;;;;;;;;;;5059352;28;19928;-63
2022/10/17 06:59:06;;;;;;;;;;;;;;;;;;5052578;28;19924;-64
2022/10/17 07:01:33;;;;;;;;;;;;;;;;;;5066477;28;19982;-64
2022/10/17 07:03:59;;;;;;;;;;;;;;;;;;5057648;28;19928;-65
2022/10/17 07:06:25;;;;;;;;;;;;;;;;;;5064500;28;19963;-65
2022/10/17 07:08:51;;;;;;;;;;;;;;;;;;5049020;28;19924;-65
2022/10/17 07:11:17;;;;;;;;;;;;;;;;;;5057087;28;19928;-64
2022/10/17 07:13:44;;;;;;;;;;;;;;;;;;5060470;28;19929;-64
2022/10/17 07:16:10;;;;;;;;;;;;;;;;;;5051389;28;19929;-64
2022/10/17 07:18:36;;;;;;;;;;;;;;;;;;5066860;28;19929;-64
2022/10/17 07:21:02;;;;;;;;;;;;;;;;;;5050910;28;20045;-64
2022/10/17 07:23:29;;;;;;;;;;;;;;;;;;5053905;28;21109;-65
2022/10/17 07:25:55;;;;;;;;;;;;;;;;;;5055488;28;20014;-64
2022/10/17 07:28:21;;;;;;;;;;;;;;;;;;5062182;28;19935;-65
2022/10/17 07:30:47;;;;;;;;;;;;;;;;;;5065925;28;20737;-65
2022/10/17 07:33:17;;;;;;;;;;;;;;;;;;5055942;28;20384;-64
2022/10/17 07:35:43;;;;;;;;;;;;;;;;;;5058398;28;19933;-64
2022/10/17 07:38:09;;;;;;;;;;;;;;;;;;5045389;28;20454;-63
2022/10/17 07:40:35;;;;;;;;;;;;;;;;;;5060551;28;19935;-63
2022/10/17 07:43:01;;;;;;;;;;;;;;;;;;5058504;28;19981;-64
2022/10/17 07:45:28;;;;;;;;;;;;;;;;;;5059489;28;19955;-64
2022/10/17 07:47:54;;;;;;;;;;;;;;;;;;5063111;28;19935;-64
2022/10/17 07:50:20;;;;;;;;;;;;;;;;;;5052606;28;19929;-63
2022/10/17 07:52:46;;;;;;;;;;;;;;;;;;5057450;28;20005;-63
2022/10/17 07:55:12;;;;;;;;;;;;;;;;;;5053067;28;19931;-64
2022/10/17 07:57:39;;;;;;;;;;;;;;;;;;5063085;28;20339;-63
2022/10/17 08:00:05;;;;;;;;;;;;;;;;;;5058843;28;19982;-63
2022/10/17 08:02:31;;;;;;;;;;;;;;;;;;5059256;28;19928;-63
2022/10/17 08:04:58;;;;;;;;;;;;;;;;;;5055658;28;19947;-64
2022/10/17 08:07:24;;;;;;;;;;;;;;;;;;5047499;28;19924;-65
2022/10/17 08:09:54;;;;;;;;;;;;;;;;;;5060025;28;19931;-62
2022/10/17 08:12:20;;;;;;;;;;;;;;;;;;5058844;28;19936;-63
2022/10/17 08:14:47;;;;;;;;;;;;;;;;;;5061083;28;19955;-63
2022/10/17 08:17:13;;;;;;;;;;;;;;;;;;5059131;28;19932;-64
2022/10/17 08:19:39;;;;;;;;;;;;;;;;;;5055106;28;20450;-65
2022/10/17 08:22:05;;;;;;;;;;;;;;;;;;5058224;28;19929;-65
2022/10/17 08:24:31;;;;;;;;;;;;;;;;;;5056552;28;20118;-66
2022/10/17 08:26:59;;;;;;;;;;;;;;;;;;5056004;28;19928;-66
2022/10/17 08:29:25;;;;;;;;;;;;;;;;;;5054867;28;19932;-65
2022/10/17 08:31:52;;;;;;;;;;;;;;;;;;5049951;28;19986;-65
2022/10/17 08:34:23;;;;;;;;;;;;;;;;;;5050413;28;20023;-65
2022/10/17 08:36:50;;;;;;;;;;;;;;;;;;5055030;28;19932;-66
2022/10/17 08:39:16;;;;;;;;;;;;;;;;;;5061657;28;19928;-66
2022/10/17 08:41:42;;;;;;;;;;;;;;;;;;5056437;28;19932;-66
2022/10/17 08:44:09;;;;;;;;;;;;;;;;;;5056782;28;20308;-66
2022/10/17 08:46:35;;;;;;;;;;;;;;;;;;5053149;28;20493;-66
2022/10/17 08:49:02;;;;;;;;;;;;;;;;;;5021733;28;20010;-66
2022/10/17 08:51:28;;;;;;;;;;;;;;;;;;5059832;28;19928;-66
2022/10/17 08:53:54;;;;;;;;;;;;;;;;;;5054957;28;19987;-66
2022/10/17 08:56:20;;;;;;;;;;;;;;;;;;5058102;28;20016;-67
2022/10/17 08:58:55;;;;;;;;;;;;;;;;;;5039425;28;19966;-66
2022/10/17 09:01:22;;;;;;;;;;;;;;;;;;5059859;28;19958;-68
2022/10/17 09:03:49;;;;;;;;;;;;;;;;;;5047617;28;19928;-68
2022/10/17 09:06:15;;;;;;;;;;;;;;;;;;5064750;28;19966;-68
2022/10/17 09:08:41;;;;;;;;;;;;;;;;;;5060601;28;19928;-68
2022/10/17 09:11:07;;;;;;;;;;;;;;;;;;5057635;28;20370;-68
2022/10/17 09:13:33;;;;;;;;;;;;;;;;;;5055717;28;19932;-67
2022/10/17 09:16:00;;;;;;;;;;;;;;;;;;5048031;28;20011;-68
2022/10/17 09:18:26;;;;;;;;;;;;;;;;;;5061904;28;20441;-68
2022/10/17 09:20:52;;;;;;;;;;;;;;;;;;5056673;28;19928;-67
2022/10/17 09:23:19;;;;;;;;;;;;;;;;;;5058621;28;19933;-67
2022/10/17 09:25:45;;;;;;;;;;;;;;;;;;5055791;28;19932;-67
2022/10/17 09:28:11;;;;;;;;;;;;;;;;;;5058119;28;20755;-68
2022/10/17 09:30:37;;;;;;;;;;;;;;;;;;5058996;28;19932;-68
2022/10/17 09:33:12;;;;;;;;;;;;;;;;;;5052756;28;19928;-69
2022/10/17 09:35:48;;;;;;;;;;;;;;;;;;5057474;28;19929;-68
2022/10/17 09:38:14;;;;;;;;;;;;;;;;;;5054435;28;19933;-68
2022/10/17 09:40:40;;;;;;;;;;;;;;;;;;5058798;28;19990;-68
2022/10/17 09:43:06;;;;;;;;;;;;;;;;;;5051540;28;20565;-68
2022/10/17 09:45:36;;;;;;;;;;;;;;;;;;5058224;28;20468;-68
2022/10/17 09:48:02;;;;;;;;;;;;;;;;;;5053861;28;19928;-67
2022/10/17 09:50:28;;;;;;;;;;;;;;;;;;5057074;28;19929;-68
2022/10/17 09:52:55;;;;;;;;;;;;;;;;;;5062675;28;19929;-68
2022/10/17 09:55:21;;;;;;;;;;;;;;;;;;5054845;28;20304;-67
2022/10/17 09:57:47;;;;;;;;;;;;;;;;;;5052974;28;19929;-69
2022/10/17 10:00:13;;;;;;;;;;;;;;;;;;5050850;28;20145;-67
2022/10/17 10:02:44;;;;;;;;;;;;;;;;;;5066295;28;19940;-68
2022/10/17 10:05:10;;;;;;;;;;;;;;;;;;5062342;28;19974;-68
2022/10/17 10:07:37;;;;;;;;;;;;;;;;;;5059707;28;19982;-68
2022/10/17 10:10:03;;;;;;;;;;;;;;;;;;5064872;28;20244;-67
2022/10/17 10:12:29;;;;;;;;;;;;;;;;;;5051274;28;19955;-67
2022/10/17 10:14:56;;;;;;;;;;;;;;;;;;5061813;28;19928;-67
2022/10/17 10:17:22;;;;;;;;;;;;;;;;;;5051397;28;19924;-67
2022/10/17 10:19:48;;;;;;;;;;;;;;;;;;5051266;28;19974;-67
2022/10/17 10:22:15;;;;;;;;;;;;;;;;;;5057020;28;20218;-68
2022/10/17 10:24:41;;;;;;;;;;;;;;;;;;5053150;28;20480;-68
2022/10/17 10:27:07;;;;;;;;;;;;;;;;;;5053908;28;19929;-69
2022/10/17 10:29:34;;;;;;;;;;;;;;;;;;5059101;28;20389;-68
2022/10/17 10:32:00;;;;;;;;;;;;;;;;;;5058410;28;20001;-67
2022/10/17 10:34:44;;;;;;;;;;;;;;;;;;5059060;28;19929;-68
2022/10/17 10:37:10;;;;;;;;;;;;;;;;;;5056101;28;19929;-68
2022/10/17 10:39:38;;;;;;;;;;;;;;;;;;5052018;28;20175;-68
2022/10/17 10:42:04;;;;;;;;;;;;;;;;;;5061075;28;19978;-68
2022/10/17 10:44:30;;;;;;;;;;;;;;;;;;5058146;28;20355;-68
2022/10/17 10:46:57;;;;;;;;;;;;;;;;;;5057826;28;19928;-67
2022/10/17 10:49:23;;;;;;;;;;;;;;;;;;5061772;28;19936;-67
2022/10/17 10:51:49;;;;;;;;;;;;;;;;;;5057520;28;20435;-68
2022/10/17 10:54:15;;;;;;;;;;;;;;;;;;5059297;28;19972;-69
2022/10/17 10:56:42;;;;;;;;;;;;;;;;;;5057690;28;19986;-68
2022/10/17 10:59:09;;;;;;;;;;;;;;;;;;5052010;28;20451;-67
2022/10/17 11:01:36;;;;;;;;;;;;;;;;;;5041399;28;22317;-66
2022/10/17 11:04:02;;;;;;;;;;;;;;;;;;5054029;28;20597;-66
2022/10/17 11:06:28;;;;;;;;;;;;;;;;;;5055476;28;20267;-66
2022/10/17 11:23:07;;;;;;;;;;;;;;;;;;5452155;23;20069;-67
2022/10/17 11:25:34;;;;;;;;;;;;;;;;;;4922830;29;19934;-68
2022/10/17 11:28:00;;;;;;;;;;;;;;;;;;4917942;29;19931;-68
2022/10/17 11:30:30;;;;;;;;;;;;;;;;;;4918806;29;19978;-69
2022/10/17 11:32:56;;;;;;;;;;;;;;;;;;4923440;29;19970;-69
2022/10/17 11:35:22;;;;;;;;;;;;;;;;;;4922300;29;19931;-68
2022/10/17 11:37:48;;;;;;;;;;;;;;;;;;4924119;29;19965;-68
2022/10/17 11:40:14;;;;;;;;;;;;;;;;;;4922370;29;20620;-68
2022/10/17 11:42:43;;;;;;;;;;;;;;;;;;4922357;29;19930;-68
2022/10/17 11:45:09;;;;;;;;;;;;;;;;;;4920904;29;19931;-68
2022/10/17 11:47:36;;;;;;;;;;;;;;;;;;4923392;29;19931;-68
2022/10/17 11:50:02;;;;;;;;;;;;;;;;;;4923847;29;19937;-68
2022/10/17 11:52:48;;;;;;;;;;;;;;;;;;4903911;29;19931;-69
2022/10/17 11:55:21;;;;;;;;;;;;;;;;;;4923732;29;19927;-68
2022/10/17 11:57:47;;;;;;;;;;;;;;;;;;4917586;28;19931;-69
2022/10/17 12:00:14;;;;;;;;;;;;;;;;;;4924796;29;19934;-68
2022/10/17 12:02:40;;;;;;;;;;;;;;;;;;4917015;29;20826;-68
2022/10/17 12:05:06;;;;;;;;;;;;;;;;;;4919458;29;20650;-68
2022/10/17 12:07:32;;;;;;;;;;;;;;;;;;4917683;28;19994;-68
2022/10/17 12:09:59;;;;;;;;;;;;;;;;;;4918616;29;19931;-68
2022/10/17 12:12:25;;;;;;;;;;;;;;;;;;4927794;29;20002;-68
2022/10/17 12:14:52;;;;;;;;;;;;;;;;;;4921721;29;19931;-68
2022/10/17 12:17:18;;;;;;;;;;;;;;;;;;4925814;29;19990;-68
2022/10/17 12:19:44;;;;;;;;;;;;;;;;;;4915570;29;19935;-68
2022/10/17 12:22:10;;;;;;;;;;;;;;;;;;4917379;29;19931;-69
2022/10/17 12:24:36;;;;;;;;;;;;;;;;;;4907654;29;20434;-68
2022/10/17 12:27:03;;;;;;;;;;;;;;;;;;4894466;29;19975;-67
2022/10/17 12:29:29;;;;;;;;;;;;;;;;;;4892331;29;19939;-67
2022/10/17 12:31:55;;;;;;;;;;;;;;;;;;4898346;29;19995;-67
2022/10/17 12:34:21;;;;;;;;;;;;;;;;;;4899171;29;19959;-67
2022/10/17 12:36:47;;;;;;;;;;;;;;;;;;4896477;29;20344;-67
2022/10/17 12:39:14;;;;;;;;;;;;;;;;;;4909727;29;19939;-67
2022/10/17 12:41:42;;;;;;;;;;;;;;;;;;4910384;29;19938;-67
2022/10/17 12:44:08;;;;;;;;;;;;;;;;;;4897787;29;19931;-67
2022/10/17 12:46:34;;;;;;;;;;;;;;;;;;4903012;29;19935;-67
2022/10/17 12:49:00;;;;;;;;;;;;;;;;;;4894816;29;19931;-67
2022/10/17 12:51:28;;;;;;;;;;;;;;;;;;4904693;29;19974;-67
2022/10/17 12:54:03;;;;;;;;;;;;;;;;;;4902161;29;19931;-67
2022/10/17 12:56:29;;;;;;;;;;;;;;;;;;4901258;29;20336;-67
2022/10/17 12:58:55;;;;;;;;;;;;;;;;;;4904575;29;19932;-67
2022/10/17 13:01:21;;;;;;;;;;;;;;;;;;4896741;29;19938;-67
2022/10/17 13:03:51;;;;;;;;;;;;;;;;;;4892313;29;20001;-67
2022/10/17 13:06:17;;;;;;;;;;;;;;;;;;4898387;29;20019;-67
2022/10/17 13:08:43;;;;;;;;;;;;;;;;;;4905660;29;19935;-67
2022/10/17 13:11:09;;;;;;;;;;;;;;;;;;4892952;29;19935;-67
2022/10/17 13:13:36;;;;;;;;;;;;;;;;;;4904751;29;20001;-67
2022/10/17 13:16:02;;;;;;;;;;;;;;;;;;4906542;29;19931;-67
2022/10/17 13:18:28;;;;;;;;;;;;;;;;;;4901530;29;19935;-67
2022/10/17 13:20:54;;;;;;;;;;;;;;;;;;4903511;29;20391;-67
2022/10/17 13:23:20;;;;;;;;;;;;;;;;;;4898856;29;19986;-67
2022/10/17 13:25:47;;;;;;;;;;;;;;;;;;4894610;29;20011;-67
2022/10/17 13:28:13;;;;;;;;;;;;;;;;;;4895822;29;19931;-67
2022/10/17 13:30:39;;;;;;;;;;;;;;;;;;4899708;29;19931;-67
2022/10/17 13:33:05;;;;;;;;;;;;;;;;;;4906946;29;19935;-67
2022/10/17 13:35:31;;;;;;;;;;;;;;;;;;4901524;29;19931;-67
2022/10/17 13:38:18;;;;;;;;;;;;;;;;;;4906979;29;20022;-67
2022/10/17 13:40:45;;;;;;;;;;;;;;;;;;4892269;29;19935;-66
2022/10/17 13:43:15;;;;;;;;;;;;;;;;;;4902359;29;20235;-67
2022/10/17 13:45:41;;;;;;;;;;;;;;;;;;4895925;29;19935;-67
2022/10/17 13:48:09;;;;;;;;;;;;;;;;;;4906751;29;19987;-67
2022/10/17 13:50:35;;;;;;;;;;;;;;;;;;4904222;29;19931;-67
2022/10/17 13:53:10;;;;;;;;;;;;;;;;;;4893232;29;20574;-66
2022/10/17 13:55:36;;;;;;;;;;;;;;;;;;4901037;29;20002;-68
2022/10/17 13:58:02;;;;;;;;;;;;;;;;;;4899093;29;20367;-67
2022/10/17 14:00:28;;;;;;;;;;;;;;;;;;4911945;29;20294;-67
2022/10/17 14:02:55;;;;;;;;;;;;;;;;;;4904354;29;20633;-66
2022/10/17 14:05:22;;;;;;;;;;;;;;;;;;4902542;29;20002;-68
2022/10/17 14:07:48;;;;;;;;;;;;;;;;;;4902284;29;19970;-67
2022/10/17 14:10:35;;;;;;;;;;;;;;;;;;4894854;29;19935;-67
2022/10/17 14:13:03;;;;;;;;;;;;;;;;;;4908115;29;19931;-67
2022/10/17 14:15:29;;;;;;;;;;;;;;;;;;4898090;29;20338;-67
2022/10/17 14:17:55;;;;;;;;;;;;;;;;;;4911051;29;19998;-67
2022/10/17 14:20:21;;;;;;;;;;;;;;;;;;4900474;29;20283;-67
2022/10/17 14:23:08;;;;;;;;;;;;;;;;;;4901682;29;19937;-67
2022/10/17 14:25:47;;;;;;;;;;;;;;;;;;4903025;29;19931;-66
2022/10/17 14:28:14;;;;;;;;;;;;;;;;;;4902153;29;20014;-68
2022/10/17 14:30:40;;;;;;;;;;;;;;;;;;4909025;29;20012;-67
2022/10/17 14:33:21;;;;;;;;;;;;;;;;;;4908867;29;20406;-67
2022/10/17 14:35:47;;;;;;;;;;;;;;;;;;4901112;29;20052;-68
2022/10/17 14:38:14;;;;;;;;;;;;;;;;;;4901263;29;20437;-67
2022/10/17 14:40:40;;;;;;;;;;;;;;;;;;4908230;29;19943;-67
2022/10/17 14:43:07;;;;;;;;;;;;;;;;;;4901086;29;19935;-67
2022/10/17 14:45:33;;;;;;;;;;;;;;;;;;4905449;29;19935;-67
2022/10/17 14:47:59;;;;;;;;;;;;;;;;;;4905002;29;19931;-67
2022/10/17 14:50:25;;;;;;;;;;;;;;;;;;4893372;29;19959;-68
2022/10/17 14:52:51;;;;;;;;;;;;;;;;;;4906632;29;19931;-67
2022/10/17 14:55:17;;;;;;;;;;;;;;;;;;4901624;29;19931;-67
2022/10/17 14:57:44;;;;;;;;;;;;;;;;;;4908146;29;19931;-67
2022/10/17 15:00:10;;;;;;;;;;;;;;;;;;4899843;29;19995;-66
2022/10/17 15:02:36;;;;;;;;;;;;;;;;;;4905823;29;19931;-67
2022/10/17 15:05:02;;;;;;;;;;;;;;;;;;4897120;29;20352;-67
2022/10/17 15:07:29;;;;;;;;;;;;;;;;;;4904731;29;19966;-68
2022/10/17 15:09:55;;;;;;;;;;;;;;;;;;4910815;29;20026;-67
2022/10/17 15:12:21;;;;;;;;;;;;;;;;;;4896422;29;20426;-67
2022/10/17 15:14:47;;;;;;;;;;;;;;;;;;4908146;29;19931;-68
2022/10/17 15:17:14;;;;;;;;;;;;;;;;;;4898901;29;19927;-68
2022/10/17 15:19:40;;;;;;;;;;;;;;;;;;4902977;29;19938;-69
2022/10/17 15:22:06;;;;;;;;;;;;;;;;;;4901469;29;19931;-67
2022/10/17 15:24:32;;;;;;;;;;;;;;;;;;4904239;29;19937;-67
2022/10/17 15:26:59;;;;;;;;;;;;;;;;;;4910107;29;19931;-68
2022/10/17 15:29:25;;;;;;;;;;;;;;;;;;4901551;29;20392;-67
2022/10/17 15:31:51;;;;;;;;;;;;;;;;;;4909482;29;20025;-67
2022/10/17 15:34:17;;;;;;;;;;;;;;;;;;4906447;29;19982;-67
2022/10/17 15:36:43;;;;;;;;;;;;;;;;;;4909150;29;19931;-67
2022/10/17 15:39:10;;;;;;;;;;;;;;;;;;4908034;29;20395;-67
2022/10/17 15:41:36;;;;;;;;;;;;;;;;;;4896653;29;19983;-67
2022/10/17 15:44:02;;;;;;;;;;;;;;;;;;4903508;29;20627;-67
2022/10/17 15:46:29;;;;;;;;;;;;;;;;;;4896772;29;20113;-66
2022/10/17 15:48:55;;;;;;;;;;;;;;;;;;4905667;29;20198;-66
2022/10/17 15:51:21;;;;;;;;;;;;;;;;;;4895780;29;20396;-67
2022/10/17 15:53:47;;;;;;;;;;;;;;;;;;4909737;29;19931;-67
2022/10/17 15:56:13;;;;;;;;;;;;;;;;;;4908862;29;19931;-67
2022/10/17 15:58:39;;;;;;;;;;;;;;;;;;4891546;29;19998;-67
2022/10/17 16:01:06;;;;;;;;;;;;;;;;;;4903716;29;19935;-66
2022/10/17 16:03:32;;;;;;;;;;;;;;;;;;4896780;29;20407;-66
2022/10/17 16:05:58;;;;;;;;;;;;;;;;;;4904812;29;19990;-67
2022/10/17 16:08:24;;;;;;;;;;;;;;;;;;4898163;29;19931;-67
2022/10/17 16:10:51;;;;;;;;;;;;;;;;;;4907492;29;19978;-67
2022/10/17 16:13:17;;;;;;;;;;;;;;;;;;4903468;29;19935;-66
2022/10/17 16:15:43;;;;;;;;;;;;;;;;;;4894017;29;19978;-69
2022/10/17 16:18:09;;;;;;;;;;;;;;;;;;4907902;29;19931;-66
2022/10/17 16:20:35;;;;;;;;;;;;;;;;;;4898572;29;19939;-67
2022/10/17 16:23:01;;;;;;;;;;;;;;;;;;4901276;29;19935;-67
2022/10/17 16:25:28;;;;;;;;;;;;;;;;;;4893519;29;19939;-67
2022/10/17 16:27:54;;;;;;;;;;;;;;;;;;4892182;29;19935;-66
2022/10/17 16:30:20;;;;;;;;;;;;;;;;;;4901660;29;20471;-67
2022/10/17 16:32:47;;;;;;;;;;;;;;;;;;4902086;29;20396;-66
2022/10/17 16:35:13;;;;;;;;;;;;;;;;;;4903229;29;20021;-67
2022/10/17 16:37:40;;;;;;;;;;;;;;;;;;4901237;29;19934;-67
2022/10/17 16:40:06;;;;;;;;;;;;;;;;;;4901679;29;19990;-67
2022/10/17 16:42:32;;;;;;;;;;;;;;;;;;4905353;29;19931;-67
2022/10/17 16:44:58;;;;;;;;;;;;;;;;;;4899939;29;19935;-67
2022/10/17 16:47:25;;;;;;;;;;;;;;;;;;4907894;29;19970;-68
2022/10/17 16:49:51;;;;;;;;;;;;;;;;;;4894269;29;19931;-67
2022/10/17 16:52:17;;;;;;;;;;;;;;;;;;4900640;29;19931;-67
2022/10/17 16:54:43;;;;;;;;;;;;;;;;;;4897871;29;19992;-67
2022/10/17 16:57:09;;;;;;;;;;;;;;;;;;4907521;29;20479;-67